Time;durP1;ratioP1;P1;durP2;ratioP2;P2;SDS_P1;SDS_P2;PMS_P1;PMS_P2;Temp;Humidity;BMP_temperature;BMP_pressure;BME280_temperature;BME280_humidity;BME280_pressure;Samples;Min_cycle;Max_cycle;Signal;HPM_P1;HPM_P2
2023/06/17 00:00:35;;;;;;;9.63;6.50;;;19.40;99.90;;;;;;5052346;28;20040;-63
2023/06/17 00:03:40;;;;;;;9.88;6.78;;;19.40;99.90;;;;;;5052948;28;20048;-63
2023/06/17 00:06:43;;;;;;;8.80;6.30;;;19.30;99.90;;;;;;5053110;28;20047;-61
2023/06/17 00:09:47;;;;;;;10.27;6.85;;;19.10;99.90;;;;;;5052999;28;20048;-63
2023/06/17 00:12:51;;;;;;;9.73;6.63;;;18.90;99.90;;;;;;5052779;28;20063;-63
2023/06/17 00:15:59;;;;;;;11.88;7.18;;;18.60;99.90;;;;;;5053138;28;20060;-63
2023/06/17 00:19:04;;;;;;;15.10;7.55;;;18.40;99.90;;;;;;5053027;28;20426;-63
2023/06/17 00:22:08;;;;;;;12.43;6.65;;;18.40;99.90;;;;;;5052820;28;20044;-63
2023/06/17 00:25:12;;;;;;;13.43;7.13;;;18.50;99.90;;;;;;5052777;28;20051;-63
2023/06/17 00:28:17;;;;;;;10.20;6.60;;;18.60;99.90;;;;;;5052985;28;20411;-63
2023/06/17 00:31:21;;;;;;;9.95;6.50;;;18.60;99.90;;;;;;5052343;28;20063;-59
2023/06/17 00:34:24;;;;;;;15.90;7.15;;;18.50;99.90;;;;;;5052404;28;20507;-61
2023/06/17 00:37:28;;;;;;;8.85;6.90;;;18.30;99.90;;;;;;5051648;28;20523;-63
2023/06/17 00:40:32;;;;;;;11.05;6.57;;;18.10;99.90;;;;;;5052571;28;20514;-63
2023/06/17 00:43:36;;;;;;;12.95;6.45;;;17.90;99.90;;;;;;5051244;28;20047;-61
2023/06/17 00:46:43;;;;;;;6.70;5.18;;;17.90;99.90;;;;;;5051691;28;20043;-59
2023/06/17 00:49:48;;;;;;;8.35;5.28;;;17.80;99.90;;;;;;5052375;28;20059;-63
2023/06/17 00:52:53;;;;;;;11.13;5.75;;;17.80;99.90;;;;;;5051839;28;20048;-63
2023/06/17 00:55:59;;;;;;;6.88;4.90;;;17.80;99.90;;;;;;5051545;28;20040;-63
2023/06/17 00:59:04;;;;;;;7.45;5.30;;;17.50;99.90;;;;;;5052399;28;20056;-63
2023/06/17 01:02:10;;;;;;;6.75;5.30;;;17.10;99.90;;;;;;5052106;28;20044;-59
2023/06/17 01:05:17;;;;;;;7.20;4.72;;;16.90;99.90;;;;;;5050587;28;20037;-61
2023/06/17 01:08:44;;;;;;;6.47;4.25;;;17.00;99.90;;;;;;5052177;28;20044;-63
2023/06/17 01:11:53;;;;;;;5.72;4.20;;;16.90;99.90;;;;;;5051412;28;20518;-63
2023/06/17 01:14:58;;;;;;;8.48;4.82;;;17.00;99.90;;;;;;5052039;28;20059;-62
2023/06/17 01:18:04;;;;;;;6.72;4.45;;;16.90;99.90;;;;;;5051435;28;20052;-63
2023/06/17 01:21:08;;;;;;;5.63;3.95;;;16.80;99.90;;;;;;5052250;28;20048;-63
2023/06/17 01:24:13;;;;;;;5.63;4.43;;;16.80;99.90;;;;;;5052013;28;20039;-63
2023/06/17 01:27:23;;;;;;;6.43;4.68;;;16.80;99.90;;;;;;5052282;28;20108;-63
2023/06/17 01:30:30;;;;;;;9.25;6.07;;;16.90;99.90;;;;;;5050940;28;20060;-63
2023/06/17 01:33:36;;;;;;;10.48;5.55;;;16.80;99.90;;;;;;5051451;28;20040;-62
2023/06/17 01:36:41;;;;;;;12.48;5.28;;;16.70;99.90;;;;;;5051940;28;20510;-63
2023/06/17 01:39:49;;;;;;;10.73;5.57;;;16.60;99.90;;;;;;5050981;28;20403;-63
2023/06/17 01:42:53;;;;;;;8.10;6.20;;;16.50;99.90;;;;;;5051183;28;20522;-58
2023/06/17 01:45:58;;;;;;;7.80;5.50;;;16.50;99.90;;;;;;5050590;28;20047;-61
2023/06/17 01:49:02;;;;;;;11.18;6.00;;;16.30;99.90;;;;;;5051406;28;20044;-60
2023/06/17 01:52:09;;;;;;;10.50;6.75;;;16.30;99.90;;;;;;5050330;28;20044;-61
2023/06/17 01:55:14;;;;;;;8.82;6.50;;;16.30;99.90;;;;;;5051125;28;20039;-63
2023/06/17 01:58:18;;;;;;;8.65;6.15;;;16.20;99.90;;;;;;5050116;28;20056;-58
2023/06/17 02:01:22;;;;;;;10.23;6.57;;;16.10;99.90;;;;;;5050957;28;20399;-62
2023/06/17 02:04:26;;;;;;;9.77;6.80;;;16.00;99.90;;;;;;5050443;28;20404;-62
2023/06/17 02:07:30;;;;;;;13.43;6.90;;;16.00;99.90;;;;;;5051113;28;20048;-61
2023/06/17 02:10:34;;;;;;;11.70;6.55;;;15.90;99.90;;;;;;5050791;28;20044;-62
2023/06/17 02:13:38;;;;;;;10.13;5.97;;;15.90;99.90;;;;;;5050542;28;20056;-62
2023/06/17 02:16:49;;;;;;;8.73;6.25;;;15.80;99.90;;;;;;5050765;28;20047;-58
2023/06/17 02:19:53;;;;;;;10.35;6.28;;;15.80;99.90;;;;;;5049965;28;20048;-62
2023/06/17 02:22:57;;;;;;;12.20;6.15;;;15.90;99.90;;;;;;5050267;28;20044;-61
2023/06/17 02:26:01;;;;;;;9.63;5.50;;;16.00;99.90;;;;;;5050116;28;20048;-63
2023/06/17 02:29:05;;;;;;;8.13;5.45;;;16.00;99.90;;;;;;5049926;28;20622;-59
2023/06/17 02:32:09;;;;;;;9.23;5.13;;;16.00;99.90;;;;;;5049247;28;20044;-58
2023/06/17 02:35:13;;;;;;;9.30;5.85;;;16.00;99.90;;;;;;5050277;28;20048;-63
2023/06/17 02:38:17;;;;;;;10.88;5.80;;;16.00;99.90;;;;;;5049409;28;20048;-62
2023/06/17 02:41:21;;;;;;;8.07;5.72;;;16.00;99.90;;;;;;5048651;28;20044;-63
2023/06/17 02:44:25;;;;;;;7.35;4.88;;;16.00;99.90;;;;;;5049687;28;20048;-62
2023/06/17 02:47:29;;;;;;;7.15;4.95;;;15.90;99.90;;;;;;5049648;28;20054;-61
2023/06/17 02:50:33;;;;;;;7.15;4.53;;;15.90;99.90;;;;;;5050513;28;20112;-63
2023/06/17 02:53:37;;;;;;;8.57;4.22;;;15.90;99.90;;;;;;5037874;28;20052;-61
2023/06/17 02:56:43;;;;;;;8.32;4.55;;;15.80;99.90;;;;;;5048999;28;20044;-62
2023/06/17 02:59:47;;;;;;;13.05;5.05;;;15.90;99.90;;;;;;5050015;28;20043;-63
2023/06/17 03:02:52;;;;;;;9.60;4.43;;;15.90;99.90;;;;;;5048862;28;20866;-60
2023/06/17 03:05:56;;;;;;;7.60;4.32;;;16.00;99.90;;;;;;5049813;28;20052;-60
2023/06/17 03:09:03;;;;;;;6.57;4.70;;;16.00;99.90;;;;;;5049238;28;20051;-63
2023/06/17 03:12:08;;;;;;;7.30;5.25;;;16.00;99.90;;;;;;5048729;28;20052;-63
2023/06/17 03:15:13;;;;;;;7.65;4.95;;;16.00;99.90;;;;;;5049132;28;20052;-61
2023/06/17 03:18:17;;;;;;;9.52;5.25;;;16.00;99.90;;;;;;5048565;28;20047;-61
2023/06/17 03:21:21;;;;;;;7.93;5.40;;;16.00;99.90;;;;;;5048832;28;20514;-63
2023/06/17 03:24:26;;;;;;;8.68;5.30;;;16.00;99.90;;;;;;5048749;28;20036;-63
2023/06/17 03:27:32;;;;;;;7.22;5.57;;;16.00;99.90;;;;;;5048436;28;20052;-64
2023/06/17 03:30:40;;;;;;;8.50;5.72;;;16.00;99.90;;;;;;5048636;28;20044;-63
2023/06/17 03:33:45;;;;;;;8.43;5.20;;;;;;;;;;5048951;28;20052;-63
2023/06/17 03:36:50;;;;;;;7.70;5.13;;;17.20;99.90;;;;;;5048488;28;20041;-63
2023/06/17 03:39:54;;;;;;;9.25;5.72;;;15.90;99.90;;;;;;5048973;28;20534;-62
2023/06/17 03:42:59;;;;;;;9.48;5.55;;;15.90;99.90;;;;;;5048619;28;20039;-63
2023/06/17 03:46:03;;;;;;;6.82;5.60;;;15.90;99.90;;;;;;5049304;28;20514;-63
2023/06/17 03:49:08;;;;;;;10.07;5.18;;;15.50;99.90;;;;;;5048812;28;20410;-62
2023/06/17 03:52:13;;;;;;;9.23;5.78;;;15.30;99.90;;;;;;5048578;28;20411;-59
2023/06/17 03:55:17;;;;;;;8.30;5.72;;;15.20;99.90;;;;;;5048975;28;20502;-62
2023/06/17 03:58:21;;;;;;;8.48;5.93;;;15.10;99.90;;;;;;5048495;28;20067;-63
2023/06/17 04:01:25;;;;;;;8.95;5.05;;;14.90;99.90;;;;;;5048482;28;20032;-62
2023/06/17 04:04:34;;;;;;;11.18;5.78;;;14.90;99.90;;;;;;5049551;28;20052;-63
2023/06/17 04:07:39;;;;;;;9.07;5.75;;;14.90;99.90;;;;;;5048639;28;20107;-62
2023/06/17 04:10:43;;;;;;;10.68;6.47;;;14.90;99.90;;;;;;5049728;28;20354;-62
2023/06/17 04:13:46;;;;;;;10.15;6.13;;;14.90;99.90;;;;;;5049641;28;20048;-63
2023/06/17 04:16:50;;;;;;;7.93;5.30;;;15.00;99.90;;;;;;5048229;28;20407;-63
2023/06/17 04:19:56;;;;;;;10.40;5.40;;;15.10;99.90;;;;;;5048508;28;20044;-63
2023/06/17 04:23:01;;;;;;;12.80;6.32;;;15.20;99.90;;;;;;5048341;28;20044;-62
2023/06/17 04:26:06;;;;;;;8.65;5.40;;;15.30;99.90;;;;;;5048251;28;20399;-63
2023/06/17 04:29:11;;;;;;;9.45;5.07;;;15.70;99.90;;;;;;5048125;28;20044;-63
2023/06/17 04:32:15;;;;;;;11.32;5.20;;;17.10;99.90;;;;;;5051552;28;20060;-63
2023/06/17 04:35:21;;;;;;;6.45;4.07;;;18.40;99.90;;;;;;5051705;28;20044;-63
2023/06/17 04:38:26;;;;;;;6.07;4.20;;;19.80;99.90;;;;;;5051725;28;20048;-62
2023/06/17 04:41:32;;;;;;;8.45;4.90;;;21.10;99.90;;;;;;5052323;28;20052;-63
2023/06/17 04:44:37;;;;;;;6.75;4.68;;;22.30;99.90;;;;;;5052724;28;20226;-63
2023/06/17 04:47:42;;;;;;;8.75;5.30;;;23.40;99.90;;;;;;5052271;28;20044;-64
2023/06/17 04:50:47;;;;;;;6.80;4.32;;;23.60;99.90;;;;;;5051664;28;20060;-61
2023/06/17 04:53:51;;;;;;;5.97;4.15;;;23.60;99.90;;;;;;5051565;28;20069;-62
2023/06/17 04:56:55;;;;;;;7.05;4.80;;;23.80;99.90;;;;;;5051262;28;20403;-63
2023/06/17 04:59:59;;;;;;;7.90;4.80;;;24.20;99.90;;;;;;5051473;28;20040;-63
2023/06/17 05:03:03;;;;;;;6.38;4.47;;;24.40;99.90;;;;;;5051278;28;20218;-63
2023/06/17 05:06:07;;;;;;;7.50;5.15;;;23.80;99.90;;;;;;5050795;28;20056;-58
2023/06/17 05:09:11;;;;;;;6.68;4.65;;;25.10;99.90;;;;;;5051082;28;20059;-64
2023/06/17 05:12:17;;;;;;;6.90;4.35;;;26.10;99.90;;;;;;5051110;28;20138;-63
2023/06/17 05:15:21;;;;;;;6.22;4.38;;;26.60;99.90;;;;;;5050998;28;20048;-63
2023/06/17 05:18:26;;;;;;;7.78;3.97;;;27.30;99.90;;;;;;5050710;28;20047;-63
2023/06/17 05:21:29;;;;;;;7.57;3.78;;;27.30;99.90;;;;;;5050815;28;20041;-58
2023/06/17 05:24:34;;;;;;;6.05;4.22;;;27.70;99.90;;;;;;5051910;28;20040;-59
2023/06/17 05:27:38;;;;;;;8.40;3.88;;;27.60;99.90;;;;;;5050608;28;20052;-63
2023/06/17 05:30:43;;;;;;;6.47;4.00;;;27.90;99.90;;;;;;5050565;28;20515;-63
2023/06/17 05:33:50;;;;;;;6.07;3.83;;;28.10;99.90;;;;;;5050812;28;20065;-64
2023/06/17 05:36:54;;;;;;;7.65;4.13;;;28.50;99.90;;;;;;5050558;28;20052;-60
2023/06/17 05:39:59;;;;;;;7.00;4.57;;;28.80;99.90;;;;;;5050712;28;20052;-60
2023/06/17 05:43:03;;;;;;;4.68;3.30;;;27.60;99.90;;;;;;5050336;28;20044;-64
2023/06/17 05:46:07;;;;;;;4.95;3.78;;;28.10;99.90;;;;;;5051334;28;20048;-63
2023/06/17 05:49:11;;;;;;;5.25;3.55;;;28.60;99.90;;;;;;5050743;28;20036;-62
2023/06/17 05:52:16;;;;;;;4.53;3.25;;;28.90;99.90;;;;;;5050357;28;20043;-59
2023/06/17 05:55:19;;;;;;;3.90;3.33;;;28.80;99.90;;;;;;5050509;28;20443;-62
2023/06/17 05:58:23;;;;;;;4.07;3.60;;;29.00;99.90;;;;;;5050056;28;20044;-64
2023/06/17 06:01:37;;;;;;;4.10;2.95;;;28.40;99.70;;;;;;5049851;28;20043;-64
2023/06/17 06:04:41;;;;;;;6.78;3.38;;;28.10;99.90;;;;;;5051108;28;20048;-64
2023/06/17 06:07:45;;;;;;;4.38;3.10;;;28.60;99.90;;;;;;5050823;28;20052;-64
2023/06/17 06:10:49;;;;;;;5.90;3.67;;;28.40;99.80;;;;;;5050029;28;20048;-60
2023/06/17 06:13:53;;;;;;;5.78;4.03;;;28.20;99.90;;;;;;5050056;28;20044;-61
2023/06/17 06:16:57;;;;;;;6.47;3.83;;;27.70;99.90;;;;;;5049881;28;20055;-63
2023/06/17 06:20:01;;;;;;;6.72;3.53;;;27.50;99.90;;;;;;5050356;28;20040;-62
2023/06/17 06:23:06;;;;;;;5.35;3.83;;;27.60;99.90;;;;;;5049806;28;20055;-64
2023/06/17 06:26:10;;;;;;;6.45;3.80;;;27.50;99.90;;;;;;5050132;28;20051;-63
2023/06/17 06:29:15;;;;;;;4.85;3.17;;;27.00;99.90;;;;;;5050067;28;20438;-64
2023/06/17 06:32:20;;;;;;;4.82;3.90;;;27.20;99.90;;;;;;5051110;28;20067;-63
2023/06/17 06:35:26;;;;;;;5.28;3.50;;;26.70;99.90;;;;;;5053817;28;20056;-63
2023/06/17 06:38:31;;;;;;;7.03;3.78;;;26.70;99.90;;;;;;5049705;28;20048;-63
2023/06/17 06:41:35;;;;;;;6.18;3.83;;;27.20;99.90;;;;;;5049542;28;20055;-62
2023/06/17 06:45:00;;;;;;;4.70;3.45;;;27.10;99.90;;;;;;5049682;28;20056;-63
2023/06/17 06:48:04;;;;;;;5.93;3.85;;;27.70;99.90;;;;;;5049441;28;20396;-63
2023/06/17 06:51:09;;;;;;;6.75;3.35;;;27.40;99.90;;;;;;5049392;28;20047;-59
2023/06/17 06:54:13;;;;;;;6.28;3.58;;;27.90;99.90;;;;;;5048738;28;20040;-63
2023/06/17 06:57:17;;;;;;;6.35;3.28;;;28.70;99.90;;;;;;5049445;28;20419;-64
2023/06/17 07:00:23;;;;;;;4.30;3.60;;;29.10;99.90;;;;;;5049496;28;20052;-64
2023/06/17 07:03:27;;;;;;;5.90;3.20;;;28.30;99.90;;;;;;5049294;28;20502;-64
2023/06/17 07:06:31;;;;;;;4.80;3.13;;;29.50;99.90;;;;;;5050503;28;20398;-63
2023/06/17 07:09:39;;;;;;;5.70;3.42;;;30.00;99.00;;;;;;5048506;28;20059;-65
2023/06/17 07:12:45;;;;;;;3.47;2.70;;;30.80;98.60;;;;;;5048561;28;20052;-64
2023/06/17 07:15:50;;;;;;;4.85;3.30;;;31.10;97.10;;;;;;5048839;28;20044;-63
2023/06/17 07:18:53;;;;;;;5.75;3.28;;;31.70;96.20;;;;;;5048625;28;20111;-64
2023/06/17 07:21:57;;;;;;;4.65;3.00;;;31.90;95.60;;;;;;5049497;28;20254;-59
2023/06/17 07:25:03;;;;;;;3.60;2.95;;;31.00;95.40;;;;;;5048866;28;20349;-63
2023/06/17 07:28:08;;;;;;;5.85;3.40;;;30.50;95.40;;;;;;5048643;28;20056;-64
2023/06/17 07:31:13;;;;;;;4.22;2.97;;;30.90;96.10;;;;;;5048767;28;20506;-63
2023/06/17 07:34:18;;;;;;;4.30;2.90;;;31.90;95.40;;;;;;5048714;28;20060;-63
2023/06/17 07:37:23;;;;;;;4.40;2.75;;;32.50;95.30;;;;;;5048738;28;20055;-60
2023/06/17 07:40:27;;;;;;;3.30;2.95;;;31.80;94.60;;;;;;5048738;28;20044;-60
2023/06/17 07:43:31;;;;;;;3.75;2.88;;;32.50;94.80;;;;;;5049251;28;20036;-65
2023/06/17 07:46:35;;;;;;;3.55;3.00;;;32.20;93.70;;;;;;5049742;28;20047;-65
2023/06/17 07:49:39;;;;;;;5.40;2.92;;;33.00;94.50;;;;;;5049483;28;20537;-63
2023/06/17 07:52:43;;;;;;;5.10;3.22;;;32.50;94.60;;;;;;5049315;28;20126;-65
2023/06/17 07:55:47;;;;;;;4.45;2.85;;;32.40;94.50;;;;;;5049193;28;20052;-64
2023/06/17 07:58:51;;;;;;;4.97;3.05;;;33.70;94.20;;;;;;5048221;28;20052;-62
2023/06/17 08:01:55;;;;;;;5.55;3.90;;;32.60;93.90;;;;;;5049291;28;20048;-65
2023/06/17 08:05:00;;;;;;;5.93;4.10;;;33.40;94.20;;;;;;5051609;28;20044;-65
2023/06/17 08:08:05;;;;;;;5.07;3.55;;;34.50;94.00;;;;;;5053235;28;20075;-65
2023/06/17 08:11:09;;;;;;;6.60;4.13;;;34.50;93.80;;;;;;5053334;28;20116;-65
2023/06/17 08:14:14;;;;;;;3.63;3.08;;;33.90;93.80;;;;;;5053208;28;20047;-62
2023/06/17 08:17:18;;;;;;;6.18;4.32;;;33.90;93.70;;;;;;5053753;28;20052;-64
2023/06/17 08:20:22;;;;;;;5.13;4.45;;;32.70;93.60;;;;;;5065410;28;20039;-64
2023/06/17 08:23:27;;;;;;;6.35;4.38;;;31.70;93.60;;;;;;5064289;28;20410;-65
2023/06/17 08:26:31;;;;;;;4.72;3.70;;;33.60;93.90;;;;;;5064328;28;20048;-64
2023/06/17 08:29:35;;;;;;;6.05;4.15;;;35.30;93.10;;;;;;5061323;28;20048;-63
2023/06/17 08:32:39;;;;;;;6.22;3.10;;;35.20;92.30;;;;;;5058862;28;20051;-62
2023/06/17 08:35:43;;;;;;;3.67;2.50;;;36.50;92.50;;;;;;5056327;28;20530;-62
2023/06/17 08:38:47;;;;;;;5.70;2.97;;;37.20;92.10;;;;;;5058858;28;20048;-64
2023/06/17 08:41:52;;;;;;;4.32;2.90;;;37.40;91.20;;;;;;5060806;28;20047;-61
2023/06/17 08:44:59;;;;;;;5.15;2.63;;;38.40;90.60;;;;;;5066499;28;20427;-62
2023/06/17 08:48:04;;;;;;;5.60;2.75;;;38.20;89.10;;;;;;5063599;28;20450;-63
2023/06/17 08:51:08;;;;;;;4.88;2.63;;;38.90;87.40;;;;;;5062330;28;20056;-62
2023/06/17 08:54:13;;;;;;;5.30;2.67;;;40.10;85.50;;;;;;5064792;28;20141;-62
2023/06/17 08:57:17;;;;;;;2.45;2.13;;;40.80;81.20;;;;;;5062984;28;20127;-60
2023/06/17 09:00:21;;;;;;;3.15;2.30;;;40.90;74.80;;;;;;5062890;28;20051;-64
2023/06/17 09:03:25;;;;;;;4.00;2.33;;;40.40;73.10;;;;;;5061968;28;20043;-62
2023/06/17 09:06:29;;;;;;;3.63;2.65;;;40.30;73.20;;;;;;5058966;28;20039;-63
2023/06/17 09:09:34;;;;;;;3.83;2.88;;;37.80;73.50;;;;;;5055631;28;20040;-61
2023/06/17 09:12:39;;;;;;;2.92;2.40;;;37.50;71.60;;;;;;5060317;28;20032;-62
2023/06/17 09:15:43;;;;;;;2.88;2.50;;;36.60;71.60;;;;;;5056230;28;20491;-64
2023/06/17 09:18:48;;;;;;;3.47;2.40;;;36.80;73.10;;;;;;5057616;28;20052;-63
2023/06/17 09:21:53;;;;;;;3.20;2.35;;;39.00;73.00;;;;;;5061129;28;20059;-64
2023/06/17 09:24:58;;;;;;;3.05;2.22;;;38.10;72.10;;;;;;5061916;28;20052;-62
2023/06/17 09:28:02;;;;;;;2.67;2.22;;;39.60;72.20;;;;;;5059255;28;20063;-62
2023/06/17 09:31:06;;;;;;;3.72;2.80;;;40.30;70.70;;;;;;5067371;28;20040;-61
2023/06/17 09:34:10;;;;;;;4.80;2.13;;;38.40;71.10;;;;;;5052896;28;20123;-65
2023/06/17 09:37:15;;;;;;;3.78;2.67;;;36.60;72.20;;;;;;5057641;28;20048;-62
2023/06/17 09:40:28;;;;;;;3.60;2.33;;;36.90;73.00;;;;;;5062846;28;20064;-62
2023/06/17 09:43:33;;;;;;;7.10;2.78;;;38.60;71.30;;;;;;5069719;28;20040;-57
2023/06/17 09:46:39;;;;;;;2.92;2.10;;;38.60;69.50;;;;;;5061066;28;20123;-63
2023/06/17 09:49:45;;;;;;;2.50;2.30;;;41.00;71.50;;;;;;5052346;28;20518;-60
2023/06/17 09:52:55;;;;;;;2.42;2.22;;;41.30;65.00;;;;;;5064206;28;20044;-62
2023/06/17 09:55:59;;;;;;;;;;;42.60;66.40;;;;;;5060582;28;20040;-63
2023/06/17 09:59:07;;;;;;;6.22;2.30;;;40.80;67.50;;;;;;5055567;28;19919;-61
2023/06/17 10:02:11;;;;;;;2.88;2.00;;;42.00;66.00;;;;;;5056589;28;20073;-64
2023/06/17 10:05:15;;;;;;;2.80;2.28;;;41.40;63.40;;;;;;5054058;28;20124;-63
2023/06/17 10:08:21;;;;;;;5.05;2.67;;;38.80;63.70;;;;;;5058423;28;20047;-65
2023/06/17 10:11:27;;;;;;;2.80;1.98;;;40.20;67.40;;;;;;5056979;28;20063;-62
2023/06/17 10:14:33;;;;;;;7.22;2.70;;;41.40;66.20;;;;;;5062156;28;20402;-62
2023/06/17 10:17:39;;;;;;;2.92;2.50;;;42.40;65.30;;;;;;5059764;28;20396;-62
2023/06/17 10:20:44;;;;;;;4.05;2.65;;;43.20;64.90;;;;;;5051728;28;20610;-62
2023/06/17 10:23:49;;;;;;;7.53;2.70;;;40.50;63.70;;;;;;5059088;28;20056;-63
2023/06/17 10:26:53;;;;;;;3.90;2.58;;;40.00;63.60;;;;;;5054345;28;20044;-63
2023/06/17 10:29:58;;;;;;;3.60;2.72;;;39.20;62.40;;;;;;5056769;28;20322;-66
2023/06/17 10:33:03;;;;;;;3.10;2.53;;;37.00;65.50;;;;;;5059713;28;20051;-63
2023/06/17 10:36:07;;;;;;;3.45;2.90;;;39.60;63.30;;;;;;5061445;28;20055;-62
2023/06/17 10:39:12;;;;;;;3.42;2.75;;;37.40;64.70;;;;;;5056746;28;20671;-65
2023/06/17 10:42:16;;;;;;;4.05;3.03;;;36.50;65.60;;;;;;5062856;28;20064;-65
2023/06/17 10:45:20;;;;;;;3.15;2.50;;;38.30;66.00;;;;;;5058976;28;20063;-63
2023/06/17 10:48:29;;;;;;;4.00;2.88;;;38.20;66.20;;;;;;5057542;28;20051;-62
2023/06/17 10:51:33;;;;;;;7.07;3.17;;;39.70;65.70;;;;;;5057876;28;20048;-64
2023/06/17 10:55:03;;;;;;;7.20;2.72;;;41.20;64.40;;;;;;5065291;28;20051;-63
2023/06/17 10:58:07;;;;;;;3.22;2.80;;;40.80;64.00;;;;;;5062578;28;20047;-65
2023/06/17 11:01:11;;;;;;;3.25;2.38;;;41.20;61.00;;;;;;5064390;28;20438;-63
2023/06/17 11:04:16;;;;;;;3.17;2.70;;;41.50;62.80;;;;;;5057974;28;20031;-63
2023/06/17 11:07:26;;;;;;;5.60;2.75;;;41.00;60.90;;;;;;5059865;28;20222;-65
2023/06/17 11:10:31;;;;;;;8.10;2.80;;;36.30;62.70;;;;;;5059875;28;20040;-63
2023/06/17 11:13:42;;;;;;;3.75;2.70;;;38.00;64.90;;;;;;5056358;28;20039;-60
2023/06/17 11:16:48;;;;;;;4.10;2.70;;;38.60;65.20;;;;;;5058773;28;20660;-64
2023/06/17 11:19:52;;;;;;;3.30;2.80;;;39.20;64.90;;;;;;5058873;28;20052;-64
2023/06/17 11:22:56;;;;;;;3.92;2.80;;;37.90;60.20;;;;;;5064045;28;20055;-63
2023/06/17 11:26:01;;;;;;;3.30;2.70;;;38.50;61.40;;;;;;5054112;28;20036;-60
2023/06/17 11:29:05;;;;;;;2.92;2.42;;;38.70;61.50;;;;;;5056654;28;20081;-60
2023/06/17 11:32:10;;;;;;;5.55;2.90;;;38.70;59.90;;;;;;5057235;28;20297;-61
2023/06/17 11:35:14;;;;;;;3.40;2.97;;;39.00;61.00;;;;;;5058901;28;20059;-64
2023/06/17 11:38:19;;;;;;;3.63;2.67;;;39.40;61.90;;;;;;5066475;28;20922;-64
2023/06/17 11:41:23;;;;;;;3.70;2.92;;;39.80;62.60;;;;;;5061727;28;20052;-64
2023/06/17 11:44:30;;;;;;;3.67;2.85;;;40.40;62.70;;;;;;5073052;28;20040;-64
2023/06/17 11:47:35;;;;;;;3.17;2.65;;;40.60;60.20;;;;;;5062323;28;20411;-63
2023/06/17 11:50:40;;;;;;;8.05;2.97;;;40.70;61.20;;;;;;5062921;28;20047;-65
2023/06/17 11:53:46;;;;;;;5.35;2.92;;;41.10;62.20;;;;;;5062123;28;20040;-64
2023/06/17 11:56:50;;;;;;;4.28;2.70;;;40.50;60.50;;;;;;5060528;28;20044;-64
2023/06/17 12:00:05;;;;;;;5.38;2.78;;;39.70;61.90;;;;;;5062728;28;20047;-64
2023/06/17 12:03:15;;;;;;;4.68;3.33;;;38.70;62.20;;;;;;5061122;28;20040;-62
2023/06/17 12:06:20;;;;;;;4.97;3.15;;;37.50;65.60;;;;;;5057885;28;20044;-64
2023/06/17 12:09:25;;;;;;;6.00;3.38;;;37.70;65.00;;;;;;5060078;28;20052;-64
2023/06/17 12:12:32;;;;;;;3.50;3.00;;;37.60;62.70;;;;;;5055723;28;20056;-63
2023/06/17 12:15:36;;;;;;;5.45;3.42;;;35.60;62.90;;;;;;5063402;28;20509;-63
2023/06/17 12:18:48;;;;;;;5.20;3.33;;;34.80;64.40;;;;;;5057388;28;20044;-64
2023/06/17 12:21:52;;;;;;;4.00;3.53;;;35.10;62.80;;;;;;5059308;28;20039;-64
2023/06/17 12:24:56;;;;;;;5.63;3.03;;;34.90;64.50;;;;;;5059617;28;20040;-64
2023/06/17 12:28:01;;;;;;;4.05;3.28;;;35.30;64.30;;;;;;5063153;28;20100;-59
2023/06/17 12:31:06;;;;;;;6.35;3.67;;;35.90;66.40;;;;;;5061814;28;20039;-63
2023/06/17 12:34:11;;;;;;;5.03;3.70;;;36.60;64.80;;;;;;5056638;28;20051;-63
2023/06/17 12:37:19;;;;;;;5.70;3.50;;;37.10;66.00;;;;;;5060261;28;20048;-64
2023/06/17 12:40:23;;;;;;;8.15;3.50;;;37.40;66.40;;;;;;5057735;28;20043;-64
2023/06/17 12:43:28;;;;;;;9.32;3.42;;;37.50;63.60;;;;;;5060833;28;20048;-60
2023/06/17 12:46:35;;;;;;;4.82;3.25;;;37.30;63.10;;;;;;5057786;28;20040;-65
2023/06/17 12:49:39;;;;;;;5.78;3.58;;;37.40;63.80;;;;;;5069285;28;20060;-63
2023/06/17 12:52:44;;;;;;;4.35;3.20;;;37.20;62.00;;;;;;5071339;28;20052;-63
2023/06/17 12:55:48;;;;;;;5.43;3.67;;;37.00;62.00;;;;;;5072574;28;20043;-64
2023/06/17 12:58:52;;;;;;;5.28;3.72;;;36.60;62.80;;;;;;5071978;28;20051;-59
2023/06/17 13:01:56;;;;;;;5.65;3.70;;;35.20;64.10;;;;;;5071855;28;20040;-63
2023/06/17 13:05:00;;;;;;;5.00;3.70;;;35.60;67.40;;;;;;5072405;28;20501;-64
2023/06/17 13:08:04;;;;;;;6.60;3.25;;;36.10;64.00;;;;;;5072466;28;20505;-63
2023/06/17 13:11:08;;;;;;;6.97;3.65;;;36.50;65.60;;;;;;5072270;28;20052;-63
2023/06/17 13:14:12;;;;;;;4.30;3.88;;;36.60;66.30;;;;;;5071843;28;20039;-63
2023/06/17 13:17:16;;;;;;;4.82;3.60;;;36.50;68.70;;;;;;5072122;28;20059;-64
2023/06/17 13:20:20;;;;;;;5.25;3.90;;;36.00;66.60;;;;;;5071546;28;20064;-62
2023/06/17 13:23:24;;;;;;;7.40;4.00;;;35.30;67.30;;;;;;5071333;28;20040;-64
2023/06/17 13:26:29;;;;;;;4.32;3.53;;;34.40;67.10;;;;;;5071755;28;20051;-64
2023/06/17 13:29:33;;;;;;;5.68;3.67;;;34.40;68.20;;;;;;5071854;28;20418;-63
2023/06/17 13:32:38;;;;;;;5.40;4.10;;;34.80;70.50;;;;;;5071354;28;20051;-63
2023/06/17 13:35:42;;;;;;;4.22;3.55;;;35.00;68.80;;;;;;5071649;28;20048;-60
2023/06/17 13:38:46;;;;;;;4.80;3.85;;;34.50;67.80;;;;;;5071714;28;20044;-63
2023/06/17 13:41:50;;;;;;;5.25;3.72;;;34.40;69.00;;;;;;5071409;28;20561;-64
2023/06/17 13:44:56;;;;;;;9.70;3.95;;;34.30;68.00;;;;;;5071369;28;20556;-62
2023/06/17 13:48:00;;;;;;;5.53;3.70;;;33.70;71.50;;;;;;5071441;28;20048;-64
2023/06/17 13:51:04;;;;;;;7.45;3.55;;;34.20;72.60;;;;;;5071077;28;20088;-61
2023/06/17 13:54:09;;;;;;;6.38;3.95;;;33.00;74.10;;;;;;5070918;28;20036;-60
2023/06/17 13:57:13;;;;;;;5.10;4.03;;;33.30;75.40;;;;;;5071073;28;20040;-63
2023/06/17 14:00:17;;;;;;;5.85;3.78;;;33.60;73.30;;;;;;5070878;28;20047;-59
2023/06/17 14:03:21;;;;;;;5.70;4.00;;;33.70;71.10;;;;;;5070130;28;20044;-64
2023/06/17 14:06:25;;;;;;;4.75;3.70;;;33.70;72.60;;;;;;5071188;28;20410;-63
2023/06/17 14:09:29;;;;;;;5.13;3.80;;;33.50;72.10;;;;;;5071103;28;20047;-64
2023/06/17 14:12:33;;;;;;;6.90;4.32;;;33.40;74.10;;;;;;5070675;28;20050;-64
2023/06/17 14:15:37;;;;;;;5.47;3.75;;;33.40;72.60;;;;;;5071020;28;20292;-61
2023/06/17 14:18:41;;;;;;;6.22;4.10;;;33.20;71.20;;;;;;5070939;28;20052;-61
2023/06/17 14:21:58;;;;;;;5.47;4.20;;;33.40;70.00;;;;;;5070793;28;20040;-65
2023/06/17 14:25:04;;;;;;;6.85;4.25;;;33.60;69.40;;;;;;5070660;28;20063;-64
2023/06/17 14:28:09;;;;;;;4.20;3.67;;;33.80;71.80;;;;;;5071063;28;20044;-64
2023/06/17 14:31:12;;;;;;;5.95;4.18;;;33.70;71.40;;;;;;5070745;28;20040;-58
2023/06/17 14:34:16;;;;;;;5.72;4.20;;;33.40;71.20;;;;;;5070702;28;20043;-63
2023/06/17 14:37:20;;;;;;;5.53;4.07;;;33.30;73.50;;;;;;5070743;28;20047;-64
2023/06/17 14:40:24;;;;;;;8.10;4.30;;;33.00;72.60;;;;;;5070420;28;20044;-64
2023/06/17 14:43:28;;;;;;;6.78;4.60;;;32.90;74.10;;;;;;5070203;28;20043;-64
2023/06/17 14:46:32;;;;;;;5.88;4.05;;;32.70;68.60;;;;;;5070963;28;20047;-63
2023/06/17 14:49:35;;;;;;;6.75;4.45;;;32.60;68.40;;;;;;5071069;28;20047;-63
2023/06/17 14:52:41;;;;;;;6.30;4.30;;;32.20;71.70;;;;;;5070503;28;20055;-63
2023/06/17 14:55:49;;;;;;;7.20;4.45;;;32.30;72.70;;;;;;5070139;28;20051;-64
2023/06/17 14:58:54;;;;;;;6.78;4.32;;;32.20;73.20;;;;;;5070393;28;20403;-63
2023/06/17 15:01:58;;;;;;;7.55;4.80;;;32.20;73.30;;;;;;5070006;28;20224;-64
2023/06/17 15:05:02;;;;;;;8.88;3.95;;;32.10;66.80;;;;;;5069575;28;20039;-63
2023/06/17 15:08:05;;;;;;;5.10;4.03;;;32.00;67.80;;;;;;5070257;28;20043;-62
2023/06/17 15:11:10;;;;;;;5.72;4.25;;;31.30;69.50;;;;;;5069681;28;20039;-64
2023/06/17 15:14:14;;;;;;;6.28;4.22;;;31.50;72.70;;;;;;5068975;28;20047;-63
2023/06/17 15:17:18;;;;;;;6.28;4.18;;;31.70;71.00;;;;;;5070028;28;20043;-59
2023/06/17 15:20:22;;;;;;;7.00;4.85;;;31.80;73.10;;;;;;5069755;28;20410;-64
2023/06/17 15:23:25;;;;;;;6.68;3.90;;;31.90;73.00;;;;;;5069528;28;20051;-63
2023/06/17 15:26:30;;;;;;;5.60;4.38;;;32.00;72.70;;;;;;5069545;28;20044;-63
2023/06/17 15:29:34;;;;;;;5.53;4.43;;;31.90;73.10;;;;;;5069587;28;20047;-64
2023/06/17 15:32:37;;;;;;;8.07;4.60;;;31.80;68.20;;;;;;5069633;28;20047;-63
2023/06/17 15:35:41;;;;;;;7.97;4.43;;;31.50;70.90;;;;;;5069033;28;20309;-60
2023/06/17 15:38:45;;;;;;;5.65;4.40;;;31.50;72.20;;;;;;5069617;28;20055;-63
2023/06/17 15:41:52;;;;;;;9.13;5.07;;;31.50;71.90;;;;;;5069183;28;20043;-64
2023/06/17 15:44:56;;;;;;;6.05;4.25;;;31.60;73.10;;;;;;5069432;28;20533;-64
2023/06/17 15:48:00;;;;;;;9.02;4.07;;;31.70;73.60;;;;;;5069561;28;20051;-63
2023/06/17 15:51:04;;;;;;;5.35;4.15;;;31.60;73.10;;;;;;5069479;28;20036;-59
2023/06/17 15:54:08;;;;;;;5.13;3.83;;;31.50;75.20;;;;;;5069347;28;20052;-65
2023/06/17 15:57:13;;;;;;;7.90;4.22;;;31.30;74.50;;;;;;5069605;28;20403;-63
2023/06/17 16:00:18;;;;;;;9.10;4.03;;;31.10;74.40;;;;;;5069060;28;20055;-64